Time;durP1;ratioP1;P1;durP2;ratioP2;P2;SDS_P1;SDS_P2;PMS_P1;PMS_P2;Temp;Humidity;BMP_temperature;BMP_pressure;BME280_temperature;BME280_humidity;BME280_pressure;Samples;Min_cycle;Max_cycle;Signal;HPM_P1;HPM_P2
2023/10/03 00:00:51;;;;;;;24.88;8.68;;;16.30;99.90;;;;;;5072953;28;20465;-83
2023/10/03 00:03:17;;;;;;;24.25;8.88;;;16.30;99.90;;;;;;5073113;28;20103;-78
2023/10/03 00:05:45;;;;;;;27.60;8.90;;;16.40;99.90;;;;;;5072456;28;20024;-80
2023/10/03 00:08:11;;;;;;;25.45;9.00;;;16.30;99.90;;;;;;5071731;28;20039;-78
2023/10/03 00:10:38;;;;;;;23.42;8.32;;;16.30;99.90;;;;;;5072469;28;20119;-78
2023/10/03 00:13:07;;;;;;;26.73;8.80;;;16.20;99.90;;;;;;5071078;28;20028;-78
2023/10/03 00:15:34;;;;;;;20.60;8.60;;;16.10;99.90;;;;;;5072000;28;20033;-78
2023/10/03 00:17:59;;;;;;;25.27;8.50;;;16.20;99.90;;;;;;5071634;28;20033;-79
2023/10/03 00:20:25;;;;;;;23.83;9.55;;;16.20;99.90;;;;;;5073187;28;20469;-79
2023/10/03 00:22:51;;;;;;;21.98;8.50;;;16.10;99.90;;;;;;5089096;28;20025;-78
2023/10/03 00:25:18;;;;;;;24.67;8.45;;;16.10;99.90;;;;;;5071915;28;20029;-78
2023/10/03 00:27:51;;;;;;;23.95;8.80;;;16.00;99.90;;;;;;5073587;28;20031;-79
2023/10/03 00:30:21;;;;;;;22.75;8.77;;;16.00;99.90;;;;;;5073268;28;20027;-79
2023/10/03 00:32:53;;;;;;;22.88;8.55;;;16.00;99.90;;;;;;5073094;28;20373;-81
2023/10/03 00:35:20;;;;;;;24.20;8.18;;;16.00;99.90;;;;;;5071903;28;20033;-79
2023/10/03 00:37:47;;;;;;;22.63;8.95;;;16.10;99.90;;;;;;5073152;28;20064;-78
2023/10/03 00:40:31;;;;;;;24.92;9.07;;;16.00;99.90;;;;;;5072582;28;20041;-79
2023/10/03 00:42:59;;;;;;;25.30;8.82;;;15.90;99.90;;;;;;5071560;28;20124;-79
2023/10/03 00:45:31;;;;;;;20.10;8.32;;;15.90;99.90;;;;;;5072007;28;20124;-79
2023/10/03 00:48:02;;;;;;;18.95;7.95;;;15.80;99.90;;;;;;5071344;28;20025;-79
2023/10/03 00:50:31;;;;;;;23.40;8.57;;;15.80;99.90;;;;;;5072022;28;20025;-79
2023/10/03 00:53:10;;;;;;;21.95;9.05;;;15.70;99.90;;;;;;5071523;28;20039;-79
2023/10/03 00:55:38;;;;;;;20.52;8.35;;;15.70;99.90;;;;;;5071977;28;20031;-79
2023/10/03 00:58:07;;;;;;;21.35;8.90;;;15.70;99.90;;;;;;5088306;28;20024;-79
2023/10/03 01:00:38;;;;;;;19.42;7.45;;;15.70;99.90;;;;;;5071622;28;20032;-78
2023/10/03 01:03:05;;;;;;;24.38;8.40;;;15.70;99.90;;;;;;5071297;28;20036;-78
2023/10/03 01:05:32;;;;;;;27.02;8.90;;;15.50;99.90;;;;;;5088704;28;20077;-78
2023/10/03 01:07:58;;;;;;;21.40;7.95;;;15.50;99.90;;;;;;5071239;28;20088;-78
2023/10/03 01:10:24;;;;;;;20.45;7.78;;;15.50;99.90;;;;;;5071801;28;20057;-78
2023/10/03 01:12:50;;;;;;;21.42;8.20;;;15.40;99.90;;;;;;5071593;28;20465;-79
2023/10/03 01:15:18;;;;;;;23.25;8.35;;;15.40;99.90;;;;;;5071097;28;20025;-79
2023/10/03 01:17:48;;;;;;;24.88;8.65;;;15.50;99.90;;;;;;5071865;28;20036;-81
2023/10/03 01:20:23;;;;;;;18.90;8.05;;;15.50;99.90;;;;;;5071432;28;20370;-81
2023/10/03 01:22:52;;;;;;;24.85;7.85;;;15.50;99.90;;;;;;5071906;28;20024;-81
2023/10/03 01:25:17;;;;;;;25.65;8.50;;;15.50;99.90;;;;;;5072553;28;20096;-82
2023/10/03 01:27:44;;;;;;;24.58;8.25;;;15.40;99.90;;;;;;5075755;28;20492;-80
2023/10/03 01:30:12;;;;;;;21.50;7.90;;;15.30;99.90;;;;;;5075971;28;20024;-81
2023/10/03 01:32:45;;;;;;;22.60;8.55;;;15.30;99.90;;;;;;5076161;28;20480;-80
2023/10/03 01:35:12;;;;;;;24.88;8.85;;;15.30;99.90;;;;;;5075125;28;20070;-80
2023/10/03 01:37:39;;;;;;;21.75;8.63;;;15.30;99.90;;;;;;5075362;28;20021;-80
2023/10/03 01:40:13;;;;;;;22.05;8.48;;;15.20;99.90;;;;;;5075855;28;20033;-80
2023/10/03 01:42:46;;;;;;;29.25;9.10;;;15.10;99.90;;;;;;5075137;28;20029;-80
2023/10/03 01:45:19;;;;;;;25.35;8.50;;;15.10;99.90;;;;;;5074458;28;20047;-79
2023/10/03 01:47:45;;;;;;;19.80;7.75;;;15.00;99.90;;;;;;5075134;28;20067;-79
2023/10/03 01:50:17;;;;;;;23.60;8.77;;;15.10;99.90;;;;;;5091429;28;20028;-78
2023/10/03 01:52:43;;;;;;;22.25;8.55;;;15.00;99.90;;;;;;5075923;28;20084;-78
2023/10/03 01:55:20;;;;;;;23.20;8.73;;;15.00;99.90;;;;;;5075281;28;20033;-78
2023/10/03 01:57:47;;;;;;;23.65;8.00;;;15.00;99.90;;;;;;5074474;28;20143;-78
2023/10/03 02:00:25;;;;;;;21.92;8.45;;;15.00;99.90;;;;;;5074111;28;20028;-78
2023/10/03 02:02:56;;;;;;;22.17;8.15;;;15.10;99.90;;;;;;5075614;28;20017;-78
2023/10/03 02:05:24;;;;;;;20.80;8.13;;;15.10;99.90;;;;;;5073978;28;20354;-79
2023/10/03 02:10:38;;;;;;;25.17;8.77;;;15.20;99.90;;;;;;5075522;28;20059;-79
2023/10/03 02:13:14;;;;;;;23.30;8.05;;;15.30;99.90;;;;;;5074991;28;20025;-80
2023/10/03 02:15:44;;;;;;;23.73;8.55;;;15.30;99.90;;;;;;5075427;28;20089;-79
2023/10/03 02:18:10;;;;;;;22.98;8.40;;;15.20;99.90;;;;;;5073887;28;20028;-79
2023/10/03 02:21:03;;;;;;;21.23;8.05;;;15.20;99.90;;;;;;5075287;28;20473;-80
2023/10/03 02:23:29;;;;;;;24.02;8.10;;;15.20;99.90;;;;;;5074507;28;20024;-80
2023/10/03 02:25:57;;;;;;;23.17;8.35;;;15.20;99.90;;;;;;5075347;28;20027;-78
2023/10/03 02:28:26;;;;;;;22.77;8.07;;;15.20;99.90;;;;;;5074721;28;20095;-80
2023/10/03 02:30:52;;;;;;;26.70;8.52;;;15.10;99.90;;;;;;5075119;28;20042;-80
2023/10/03 02:33:18;;;;;;;23.55;8.40;;;15.20;99.90;;;;;;5073320;28;20048;-80
2023/10/03 02:35:48;;;;;;;23.02;8.60;;;15.20;99.90;;;;;;5073813;28;20453;-80
2023/10/03 02:38:24;;;;;;;20.15;7.93;;;15.30;99.90;;;;;;5073115;28;20033;-80
2023/10/03 02:40:57;;;;;;;17.05;6.85;;;15.20;99.90;;;;;;5073689;28;20043;-79
2023/10/03 02:43:24;;;;;;;21.38;7.97;;;15.10;99.90;;;;;;5074561;28;20479;-80
2023/10/03 02:45:50;;;;;;;23.30;8.70;;;15.10;99.90;;;;;;5073720;28;20035;-80
2023/10/03 02:48:16;;;;;;;20.70;8.10;;;15.10;99.90;;;;;;5073003;28;20029;-80
2023/10/03 02:50:45;;;;;;;23.05;8.20;;;15.20;99.90;;;;;;5073620;28;20557;-79
2023/10/03 02:53:15;;;;;;;22.60;7.95;;;15.20;99.90;;;;;;5074365;28;20063;-80
2023/10/03 02:55:41;;;;;;;22.23;8.15;;;15.20;99.90;;;;;;5090363;28;20028;-77
2023/10/03 02:58:09;;;;;;;24.70;7.95;;;15.30;99.90;;;;;;5072742;28;20461;-78
2023/10/03 03:00:35;;;;;;;24.45;8.20;;;15.40;99.90;;;;;;5073748;28;20040;-78
2023/10/03 03:03:06;;;;;;;20.98;7.88;;;15.50;99.90;;;;;;5073073;28;20025;-84
2023/10/03 03:05:35;;;;;;;23.58;8.32;;;15.40;99.90;;;;;;5073628;28;20024;-78
2023/10/03 03:08:10;;;;;;;21.67;8.68;;;15.60;99.90;;;;;;5073391;28;20097;-84
2023/10/03 03:10:38;;;;;;;19.02;8.23;;;15.60;99.90;;;;;;5073369;28;20116;-77
2023/10/03 03:13:07;;;;;;;19.73;7.88;;;15.70;99.90;;;;;;5072908;28;20101;-81
2023/10/03 03:15:37;;;;;;;23.33;8.68;;;15.70;99.90;;;;;;5073155;28;20025;-80
2023/10/03 03:18:02;;;;;;;22.60;8.73;;;15.70;99.90;;;;;;5072857;28;20108;-84
2023/10/03 03:20:36;;;;;;;19.42;7.72;;;15.80;99.90;;;;;;5074055;28;20108;-80
2023/10/03 03:23:02;;;;;;;25.73;8.07;;;15.80;99.90;;;;;;5073004;28;20078;-87
2023/10/03 03:25:38;;;;;;;23.40;8.75;;;15.80;99.90;;;;;;5089895;28;20082;-78
2023/10/03 03:28:13;;;;;;;25.60;8.65;;;15.90;99.90;;;;;;5072656;28;20458;-79
2023/10/03 03:30:46;;;;;;;23.38;7.93;;;15.90;99.90;;;;;;5072750;28;20115;-78
2023/10/03 03:33:19;;;;;;;26.13;9.38;;;15.90;99.90;;;;;;5073563;28;20040;-78
2023/10/03 03:35:46;;;;;;;18.80;7.50;;;15.90;99.90;;;;;;5073211;28;20025;-79
2023/10/03 03:38:18;;;;;;;24.20;8.27;;;15.90;99.90;;;;;;5073439;28;20048;-80
2023/10/03 03:40:53;;;;;;;22.02;8.68;;;15.80;99.90;;;;;;5074048;28;20029;-77
2023/10/03 03:43:19;;;;;;;27.05;9.23;;;15.80;99.90;;;;;;5072244;28;20047;-77
2023/10/03 03:45:44;;;;;;;21.63;8.48;;;15.80;99.90;;;;;;5073680;28;20103;-77
2023/10/03 03:48:11;;;;;;;28.20;8.57;;;15.80;99.90;;;;;;5088392;28;20029;-77
2023/10/03 03:50:37;;;;;;;22.05;8.20;;;15.70;99.90;;;;;;5072625;28;20032;-77
2023/10/03 03:53:03;;;;;;;22.10;8.63;;;15.70;99.90;;;;;;5072605;28;20056;-76
2023/10/03 03:55:30;;;;;;;23.30;9.55;;;15.90;99.90;;;;;;5072572;28;20025;-76
2023/10/03 03:57:59;;;;;;;20.80;8.57;;;15.90;99.90;;;;;;5072324;28;20024;-76
2023/10/03 04:00:29;;;;;;;22.15;8.85;;;16.00;99.90;;;;;;5072101;28;20500;-77
2023/10/03 04:02:59;;;;;;;24.90;8.43;;;16.00;99.90;;;;;;5072679;28;20035;-79
2023/10/03 04:05:25;;;;;;;23.98;9.15;;;16.10;99.90;;;;;;5073123;28;20504;-80
2023/10/03 04:07:51;;;;;;;24.95;8.02;;;16.10;99.90;;;;;;5072471;28;20029;-79
2023/10/03 04:10:17;;;;;;;21.30;8.00;;;16.10;99.90;;;;;;5071943;28;20055;-79
2023/10/03 04:12:43;;;;;;;23.63;8.25;;;16.20;99.90;;;;;;5073427;28;20449;-79
2023/10/03 04:15:12;;;;;;;19.60;7.97;;;16.10;99.90;;;;;;5071788;28;20040;-79
2023/10/03 04:17:38;;;;;;;18.08;7.53;;;16.20;99.90;;;;;;5073716;28;20458;-77
2023/10/03 04:20:13;;;;;;;21.35;7.97;;;16.20;99.90;;;;;;5088975;28;20041;-77
2023/10/03 04:22:39;;;;;;;21.63;8.55;;;16.20;99.90;;;;;;5072513;28;20028;-77
2023/10/03 04:25:05;;;;;;;19.02;7.47;;;16.20;99.90;;;;;;5073401;28;20027;-77
2023/10/03 04:27:32;;;;;;;25.52;8.82;;;16.20;99.90;;;;;;5072038;28;20033;-77
2023/10/03 04:29:58;;;;;;;22.70;8.15;;;16.20;99.90;;;;;;5071999;28;20029;-77
2023/10/03 04:32:23;;;;;;;22.55;8.68;;;16.20;99.90;;;;;;5071666;28;20031;-77
2023/10/03 04:34:49;;;;;;;19.85;8.52;;;16.10;99.90;;;;;;5071746;28;20069;-77
2023/10/03 04:37:16;;;;;;;20.15;7.53;;;16.20;99.90;;;;;;5071714;28;20025;-77
2023/10/03 04:39:42;;;;;;;21.38;8.13;;;16.10;99.90;;;;;;5073448;28;20162;-77
2023/10/03 04:42:08;;;;;;;25.60;9.18;;;16.10;99.90;;;;;;5071479;28;20505;-79
2023/10/03 04:44:34;;;;;;;20.00;7.25;;;16.20;99.90;;;;;;5073291;28;20028;-77
2023/10/03 04:47:00;;;;;;;19.67;7.95;;;16.20;99.90;;;;;;5072896;28;20078;-77
2023/10/03 04:49:25;;;;;;;23.40;8.00;;;16.30;99.90;;;;;;5071433;28;20064;-77
2023/10/03 04:51:51;;;;;;;19.92;7.75;;;16.30;99.90;;;;;;5072002;28;20457;-77
2023/10/03 04:54:16;;;;;;;18.70;6.50;;;16.30;99.90;;;;;;5072729;28;20025;-77
2023/10/03 04:56:44;;;;;;;17.67;6.68;;;16.40;99.90;;;;;;5073001;28;20389;-76
2023/10/03 04:59:10;;;;;;;16.98;7.50;;;16.50;99.90;;;;;;5071707;28;20025;-77
2023/10/03 05:01:36;;;;;;;18.50;7.63;;;16.50;99.90;;;;;;5075404;28;20036;-79
2023/10/03 05:04:04;;;;;;;24.13;8.30;;;16.60;99.90;;;;;;5076767;28;20063;-78
2023/10/03 05:06:29;;;;;;;19.55;7.10;;;16.50;99.90;;;;;;5076288;28;20082;-80
2023/10/03 05:08:56;;;;;;;19.60;6.90;;;16.60;99.90;;;;;;5076713;28;20465;-80
2023/10/03 05:11:22;;;;;;;17.95;6.93;;;16.50;99.90;;;;;;5092028;28;20461;-80
2023/10/03 05:13:48;;;;;;;18.65;6.95;;;16.50;99.90;;;;;;5075900;28;20050;-80
2023/10/03 05:16:14;;;;;;;19.23;7.03;;;16.40;99.90;;;;;;5076193;28;20465;-80
2023/10/03 05:18:40;;;;;;;17.98;7.68;;;16.40;99.90;;;;;;5076656;28;20033;-80
2023/10/03 05:21:06;;;;;;;18.90;7.10;;;16.40;99.90;;;;;;5075369;28;20110;-79
2023/10/03 05:23:32;;;;;;;15.85;6.50;;;16.40;99.90;;;;;;5076041;28;20028;-79
2023/10/03 05:25:59;;;;;;;19.05;6.90;;;16.50;99.90;;;;;;5075248;28;20028;-79
2023/10/03 05:28:25;;;;;;;18.63;6.68;;;16.50;99.90;;;;;;5075896;28;20027;-79
2023/10/03 05:30:52;;;;;;;18.73;7.40;;;16.60;99.90;;;;;;5076317;28;20028;-79
2023/10/03 05:33:20;;;;;;;18.55;6.10;;;16.60;99.90;;;;;;5075513;28;20037;-78
2023/10/03 05:35:46;;;;;;;15.32;6.80;;;16.60;99.90;;;;;;5074907;28;20492;-79
2023/10/03 05:38:11;;;;;;;16.27;6.10;;;16.70;99.90;;;;;;5074233;28;20051;-78
2023/10/03 05:40:37;;;;;;;13.50;6.07;;;16.70;99.90;;;;;;5074935;28;20132;-78
2023/10/03 05:43:05;;;;;;;12.90;5.38;;;16.70;99.90;;;;;;5074705;28;20032;-78
2023/10/03 05:45:30;;;;;;;12.82;5.40;;;16.80;99.90;;;;;;5075102;28;20597;-78
2023/10/03 05:47:59;;;;;;;15.00;5.20;;;16.80;99.90;;;;;;5091620;28;20028;-78
2023/10/03 05:50:25;;;;;;;12.93;5.53;;;16.90;99.90;;;;;;5073943;28;20119;-79
2023/10/03 05:52:50;;;;;;;12.13;5.05;;;17.00;99.90;;;;;;5074501;28;20059;-79
2023/10/03 05:55:16;;;;;;;13.75;5.00;;;17.10;99.90;;;;;;5074119;28;20025;-79
2023/10/03 05:57:42;;;;;;;11.43;5.18;;;17.20;99.90;;;;;;5075954;28;20024;-79
2023/10/03 06:00:09;;;;;;;12.32;5.07;;;17.30;99.90;;;;;;5091365;28;20036;-79
2023/10/03 06:02:39;;;;;;;15.45;4.82;;;17.30;99.90;;;;;;5075157;28;20075;-78
2023/10/03 06:05:08;;;;;;;10.27;4.25;;;17.40;99.90;;;;;;5074398;28;20086;-79
2023/10/03 06:07:36;;;;;;;10.93;4.18;;;17.50;99.90;;;;;;5074874;28;20025;-78
2023/10/03 06:10:04;;;;;;;13.10;4.80;;;17.60;99.90;;;;;;5073720;28;20035;-78
2023/10/03 06:12:30;;;;;;;10.73;4.20;;;17.60;99.90;;;;;;5072911;28;20032;-78
2023/10/03 06:14:56;;;;;;;11.05;5.00;;;17.70;99.90;;;;;;5073971;28;20025;-78
2023/10/03 06:17:21;;;;;;;11.32;5.22;;;17.70;99.90;;;;;;5090612;28;20029;-78
2023/10/03 06:19:47;;;;;;;12.65;4.57;;;17.80;99.90;;;;;;5074247;28;20029;-79
2023/10/03 06:22:13;;;;;;;12.40;4.65;;;17.80;99.90;;;;;;5073860;28;20024;-88
2023/10/03 06:24:39;;;;;;;11.15;4.75;;;17.90;99.90;;;;;;5075345;28;20029;-79
2023/10/03 06:27:08;;;;;;;12.45;4.50;;;17.90;99.90;;;;;;5073989;28;20036;-79
2023/10/03 06:29:35;;;;;;;10.05;4.25;;;17.90;99.90;;;;;;5073805;28;20029;-80
2023/10/03 06:32:00;;;;;;;10.20;3.90;;;18.00;99.90;;;;;;5073808;28;20028;-80
2023/10/03 06:34:26;;;;;;;9.13;3.75;;;18.10;99.90;;;;;;5073495;28;20048;-80
2023/10/03 06:36:52;;;;;;;9.23;3.63;;;18.10;99.90;;;;;;5090531;28;20039;-80
2023/10/03 06:39:18;;;;;;;11.45;4.55;;;18.20;99.90;;;;;;5073645;28;20021;-80
2023/10/03 06:41:44;;;;;;;9.95;3.80;;;18.30;99.90;;;;;;5073816;28;20032;-80
2023/10/03 06:44:10;;;;;;;11.35;4.22;;;18.40;99.90;;;;;;5073990;28;20078;-80
2023/10/03 06:46:37;;;;;;;9.85;4.15;;;18.40;99.90;;;;;;5074506;28;20043;-80
2023/10/03 06:49:03;;;;;;;11.30;3.90;;;18.50;99.90;;;;;;5073777;28;20354;-80
2023/10/03 06:51:29;;;;;;;9.50;3.80;;;18.60;99.90;;;;;;5073319;28;20052;-79
2023/10/03 06:53:55;;;;;;;9.30;3.78;;;18.70;99.90;;;;;;5074611;28;20373;-79
2023/10/03 06:56:22;;;;;;;9.65;3.50;;;18.70;99.90;;;;;;5074512;28;20077;-80
2023/10/03 06:58:48;;;;;;;9.55;3.53;;;18.70;99.90;;;;;;5074325;28;20586;-80
2023/10/03 07:01:14;;;;;;;9.38;4.05;;;18.80;99.90;;;;;;5073208;28;20037;-80
2023/10/03 07:03:40;;;;;;;9.10;4.32;;;18.80;99.90;;;;;;5072799;28;20378;-79
2023/10/03 07:06:07;;;;;;;9.02;4.05;;;18.90;99.90;;;;;;5074359;28;20032;-79
2023/10/03 07:08:33;;;;;;;8.85;3.65;;;18.90;99.90;;;;;;5054367;28;20025;-79
2023/10/03 07:10:58;;;;;;;9.60;3.90;;;19.00;99.90;;;;;;5053271;28;20151;-79
2023/10/03 07:13:26;;;;;;;8.07;3.92;;;18.90;99.90;;;;;;5052449;28;20347;-80
2023/10/03 07:15:52;;;;;;;8.57;3.65;;;19.00;99.90;;;;;;5054221;28;20029;-79
2023/10/03 07:18:18;;;;;;;10.45;3.75;;;19.00;99.90;;;;;;5052680;28;20527;-80
2023/10/03 07:20:43;;;;;;;8.73;3.67;;;19.00;99.90;;;;;;5052855;28;20063;-79
2023/10/03 07:23:09;;;;;;;9.93;3.72;;;19.00;99.90;;;;;;5051985;28;20033;-79
2023/10/03 07:25:34;;;;;;;7.18;3.40;;;19.00;99.90;;;;;;5067214;28;20025;-79
2023/10/03 07:28:00;;;;;;;7.88;3.60;;;19.00;99.90;;;;;;5073312;28;20082;-79
2023/10/03 07:30:26;;;;;;;6.57;3.40;;;19.10;99.90;;;;;;5073806;28;20029;-79
2023/10/03 07:32:52;;;;;;;9.32;3.83;;;19.20;99.90;;;;;;5072494;28;20132;-79
2023/10/03 07:35:19;;;;;;;7.13;3.70;;;19.20;99.90;;;;;;5072984;28;20552;-80
2023/10/03 07:37:45;;;;;;;8.30;3.70;;;19.20;99.90;;;;;;5068717;28;20029;-83
2023/10/03 07:40:11;;;;;;;10.43;5.00;;;19.20;99.90;;;;;;5072230;28;20128;-84
2023/10/03 07:42:40;;;;;;;8.02;3.70;;;19.30;99.90;;;;;;5073697;28;20165;-84
2023/10/03 07:45:07;;;;;;;6.93;3.63;;;19.30;99.90;;;;;;5073763;28;20024;-86
2023/10/03 07:47:33;;;;;;;7.38;3.80;;;19.30;99.90;;;;;;5073296;28;20024;-86
2023/10/03 07:50:00;;;;;;;8.57;3.47;;;19.40;99.90;;;;;;5056356;28;20377;-83
2023/10/03 07:52:27;;;;;;;8.15;3.33;;;19.40;99.90;;;;;;5064525;28;20037;-85
2023/10/03 07:54:56;;;;;;;6.82;3.30;;;19.40;99.90;;;;;;5060406;28;20021;-85
2023/10/03 07:57:25;;;;;;;6.78;3.65;;;19.50;99.90;;;;;;5051552;28;20070;-85
2023/10/03 07:59:52;;;;;;;8.40;3.60;;;19.60;99.90;;;;;;5052031;28;20029;-80
2023/10/03 08:02:18;;;;;;;10.85;4.22;;;19.70;99.90;;;;;;5052146;28;20029;-79
2023/10/03 08:04:46;;;;;;;8.02;3.35;;;19.70;99.90;;;;;;5061721;28;20032;-80
2023/10/03 08:07:22;;;;;;;6.80;3.00;;;19.90;99.90;;;;;;5066668;28;20025;-85
2023/10/03 08:09:48;;;;;;;7.65;3.33;;;19.90;99.90;;;;;;5072569;28;20032;-91
2023/10/03 08:12:22;;;;;;;7.80;3.22;;;20.00;99.90;;;;;;5072757;28;20377;-93
2023/10/03 08:14:51;;;;;;;7.22;3.38;;;20.10;99.90;;;;;;5070419;28;20078;-93
2023/10/03 08:17:18;;;;;;;10.70;3.83;;;20.10;99.90;;;;;;5068194;28;20090;-87
2023/10/03 08:19:45;;;;;;;6.85;3.17;;;20.20;99.90;;;;;;5070677;28;20064;-89
2023/10/03 08:22:12;;;;;;;7.80;3.70;;;20.20;99.90;;;;;;5070367;28;20024;-86
2023/10/03 08:24:43;;;;;;;6.82;3.38;;;20.30;99.90;;;;;;5069445;28;20144;-87
2023/10/03 08:27:18;;;;;;;9.68;3.67;;;20.40;99.90;;;;;;5067555;28;20096;-85
2023/10/03 08:29:50;;;;;;;8.00;3.30;;;20.50;99.90;;;;;;5054336;28;20032;-86
2023/10/03 08:32:16;;;;;;;6.30;3.28;;;20.60;99.90;;;;;;5070662;28;20032;-85
2023/10/03 08:34:43;;;;;;;5.38;3.03;;;20.80;99.90;;;;;;5052942;28;20457;-84
2023/10/03 08:37:18;;;;;;;6.28;3.20;;;21.00;99.90;;;;;;5074100;28;20372;-82
2023/10/03 08:39:45;;;;;;;6.60;2.95;;;21.10;99.90;;;;;;5074370;28;20039;-84
2023/10/03 08:42:43;;;;;;;6.32;3.45;;;21.30;99.90;;;;;;5058086;28;20024;-87
2023/10/03 08:45:22;;;;;;;7.05;2.90;;;21.50;99.90;;;;;;5073306;28;20036;-86
2023/10/03 08:47:51;;;;;;;7.25;3.10;;;21.70;99.90;;;;;;5070646;28;20033;-82
2023/10/03 08:50:34;;;;;;;7.95;3.10;;;21.80;99.90;;;;;;5057944;28;20078;-80
2023/10/03 08:53:16;;;;;;;9.35;3.25;;;22.00;99.90;;;;;;5070833;28;20033;-79
2023/10/03 08:55:49;;;;;;;6.43;3.10;;;22.10;99.70;;;;;;5073249;28;20380;-78
2023/10/03 08:58:18;;;;;;;10.43;3.47;;;22.30;99.60;;;;;;5056656;28;20074;-79
2023/10/03 09:00:58;;;;;;;5.80;3.13;;;22.40;99.50;;;;;;5072218;28;20527;-79
2023/10/03 09:03:25;;;;;;;6.00;2.92;;;22.50;99.20;;;;;;5072108;28;20047;-77
2023/10/03 09:05:51;;;;;;;6.63;3.17;;;22.50;99.30;;;;;;5069325;28;20028;-78
2023/10/03 09:08:17;;;;;;;9.13;3.20;;;22.70;99.00;;;;;;5073539;28;20017;-78
2023/10/03 09:10:55;;;;;;;7.55;3.00;;;22.70;99.00;;;;;;5071028;28;20040;-82
2023/10/03 09:13:28;;;;;;;5.95;2.92;;;22.70;99.00;;;;;;5072313;28;20537;-77
2023/10/03 09:16:08;;;;;;;6.70;3.13;;;22.80;98.90;;;;;;5055505;28;20376;-79
2023/10/03 09:18:41;;;;;;;5.75;3.00;;;22.80;98.90;;;;;;5068720;28;20039;-81
2023/10/03 09:21:14;;;;;;;5.65;3.40;;;22.80;98.90;;;;;;5070029;28;20028;-77
2023/10/03 09:23:59;;;;;;;5.47;3.05;;;22.80;98.80;;;;;;5072634;28;20024;-80
2023/10/03 09:26:25;;;;;;;7.80;3.35;;;22.80;98.80;;;;;;5069568;28;20021;-80
2023/10/03 09:28:51;;;;;;;8.98;3.30;;;22.80;98.90;;;;;;5070121;28;20038;-79
2023/10/03 09:31:22;;;;;;;7.97;3.40;;;22.90;98.70;;;;;;5069434;28;20029;-78
2023/10/03 09:33:48;;;;;;;7.32;3.10;;;22.90;98.70;;;;;;5072431;28;20051;-84
2023/10/03 09:36:14;;;;;;;7.32;3.10;;;23.00;98.70;;;;;;5072873;28;20021;-80
2023/10/03 09:38:46;;;;;;;6.97;2.67;;;23.00;98.80;;;;;;5067788;28;20478;-81
2023/10/03 09:41:17;;;;;;;6.30;3.10;;;23.00;98.70;;;;;;5072835;28;20029;-79
2023/10/03 09:43:55;;;;;;;8.60;3.33;;;23.10;98.60;;;;;;5072264;28;20029;-80
2023/10/03 09:46:38;;;;;;;5.78;2.85;;;23.20;98.70;;;;;;5068938;28;20029;-87
2023/10/03 09:49:08;;;;;;;7.68;3.33;;;23.30;98.80;;;;;;5070400;28;20025;-83
2023/10/03 09:51:55;;;;;;;8.05;2.75;;;23.30;98.60;;;;;;5069713;28;20028;-81
2023/10/03 09:54:30;;;;;;;7.28;3.00;;;23.40;98.60;;;;;;5069941;28;20025;-82
2023/10/03 09:56:57;;;;;;;6.05;3.13;;;23.40;98.20;;;;;;5072165;28;20020;-81
2023/10/03 09:59:24;;;;;;;9.40;3.25;;;23.40;98.10;;;;;;5068525;28;20021;-84
2023/10/03 10:01:54;;;;;;;10.00;3.25;;;23.50;97.90;;;;;;5071600;28;20518;-80
2023/10/03 10:04:22;;;;;;;13.27;3.40;;;23.50;98.00;;;;;;5070786;28;20103;-84
2023/10/03 10:06:52;;;;;;;7.20;3.22;;;23.50;98.10;;;;;;5071655;28;20029;-82
2023/10/03 10:09:28;;;;;;;7.50;3.47;;;23.60;98.40;;;;;;5071746;28;20111;-81
2023/10/03 10:12:12;;;;;;;8.27;3.35;;;23.60;97.80;;;;;;5072465;28;20029;-80
2023/10/03 10:15:00;;;;;;;9.20;3.17;;;23.70;97.90;;;;;;5071664;28;20025;-82
2023/10/03 10:17:49;;;;;;;7.35;2.95;;;23.80;97.90;;;;;;5071758;28;20021;-82
2023/10/03 10:20:32;;;;;;;5.75;3.13;;;23.70;97.90;;;;;;5069599;28;20412;-84
2023/10/03 10:23:35;;;;;;;7.28;3.20;;;23.70;98.10;;;;;;5068603;28;20063;-80
2023/10/03 10:25:51;;;;;;;7.72;3.35;;;23.70;98.30;;;;;;5066289;28;20460;-81
2023/10/03 10:28:23;;;;;;;8.43;3.60;;;23.70;98.40;;;;;;5070065;28;20015;-82
2023/10/03 10:31:34;;;;;;;9.95;3.75;;;23.70;98.60;;;;;;5072879;28;20552;-80
2023/10/03 10:34:20;;;;;;;7.95;3.08;;;23.80;98.70;;;;;;4992205;28;20081;-79
2023/10/03 10:37:01;;;;;;;6.50;3.10;;;23.80;98.60;;;;;;4975458;28;20026;-79
2023/10/03 10:39:56;;;;;;;8.57;3.47;;;23.90;98.50;;;;;;4991829;28;20035;-79
2023/10/03 10:42:26;;;;;;;9.48;3.42;;;23.90;98.50;;;;;;4970521;28;20043;-79
2023/10/03 10:45:20;;;;;;;6.50;3.75;;;24.00;98.60;;;;;;4992001;28;20466;-79
2023/10/03 10:47:49;;;;;;;7.70;3.63;;;23.90;98.70;;;;;;4980227;28;20217;-78
2023/10/03 10:50:17;;;;;;;8.75;3.53;;;23.90;98.80;;;;;;4992549;28;20407;-82
2023/10/03 10:53:09;;;;;;;6.90;3.35;;;23.90;99.00;;;;;;4992390;28;20687;-82
2023/10/03 10:55:34;;;;;;;8.60;3.42;;;23.80;99.20;;;;;;4989549;28;20050;-81
2023/10/03 10:58:12;;;;;;;6.00;3.35;;;23.80;99.20;;;;;;4992218;28;20034;-81
2023/10/03 11:00:40;;;;;;;7.20;3.42;;;23.80;99.20;;;;;;4991278;28;20049;-84
2023/10/03 11:03:07;;;;;;;8.85;3.80;;;23.90;99.10;;;;;;4991546;28;20472;-81
2023/10/03 11:05:43;;;;;;;10.10;3.42;;;23.90;99.20;;;;;;5056588;28;20041;-81
2023/10/03 11:08:09;;;;;;;8.25;3.60;;;23.90;99.30;;;;;;5068948;28;20033;-80
2023/10/03 11:10:35;;;;;;;7.88;3.67;;;23.90;99.20;;;;;;5066392;28;20025;-82
2023/10/03 11:13:05;;;;;;;6.70;3.70;;;23.90;99.40;;;;;;5071206;28;20021;-81
2023/10/03 11:15:31;;;;;;;5.80;3.15;;;23.90;99.00;;;;;;5069648;28;20025;-85
2023/10/03 11:17:58;;;;;;;11.30;2.75;;;23.80;98.70;;;;;;5072449;28;20035;-81
2023/10/03 11:20:25;;;;;;;5.85;2.90;;;23.80;98.60;;;;;;5071804;28;20032;-83
2023/10/03 11:22:50;;;;;;;9.55;3.05;;;23.80;98.40;;;;;;5072529;28;20024;-80
2023/10/03 11:25:17;;;;;;;6.82;2.80;;;23.70;98.40;;;;;;5070868;28;20107;-81
2023/10/03 11:27:43;;;;;;;6.68;2.42;;;23.70;98.40;;;;;;5065958;28;20027;-83
2023/10/03 11:30:19;;;;;;;6.47;2.42;;;23.70;98.50;;;;;;5055478;28;20032;-80
2023/10/03 11:32:45;;;;;;;6.25;2.65;;;23.70;98.50;;;;;;5082606;28;20538;-79
2023/10/03 11:35:28;;;;;;;8.07;2.83;;;23.70;99.00;;;;;;5071968;28;20024;-82
2023/10/03 11:37:54;;;;;;;5.82;2.65;;;23.70;98.50;;;;;;5066022;28;20111;-80
2023/10/03 11:40:21;;;;;;;7.43;2.53;;;23.80;98.40;;;;;;5069751;28;20115;-84
2023/10/03 11:42:50;;;;;;;6.78;2.88;;;23.90;98.30;;;;;;5064478;28;20036;-81
2023/10/03 11:45:28;;;;;;;7.20;2.70;;;23.90;98.30;;;;;;5063868;28;20051;-80
2023/10/03 11:48:10;;;;;;;4.63;2.53;;;23.90;98.20;;;;;;5070004;28;20040;-83
2023/10/03 11:50:38;;;;;;;4.18;2.40;;;23.90;98.10;;;;;;5070312;28;20059;-83
2023/10/03 11:53:05;;;;;;;6.78;2.47;;;23.90;98.30;;;;;;5068478;28;20063;-83
2023/10/03 11:55:33;;;;;;;8.15;3.03;;;23.90;98.40;;;;;;5066561;28;20025;-83
2023/10/03 11:57:59;;;;;;;6.50;2.55;;;23.90;97.90;;;;;;5069484;28;20033;-83
2023/10/03 12:00:25;;;;;;;11.13;2.50;;;23.90;97.90;;;;;;5071908;28;20119;-84
2023/10/03 12:02:55;;;;;;;7.03;2.38;;;23.90;97.60;;;;;;5068028;28;20418;-79
2023/10/03 12:05:22;;;;;;;7.57;2.15;;;23.90;97.70;;;;;;5070513;28;20056;-85
2023/10/03 12:07:50;;;;;;;5.90;2.40;;;23.90;97.70;;;;;;5069084;28;20029;-83
2023/10/03 12:10:20;;;;;;;5.25;2.30;;;24.00;97.60;;;;;;5066469;28;20107;-81
2023/10/03 12:12:46;;;;;;;9.43;2.53;;;24.00;97.60;;;;;;5063359;28;20489;-81
2023/10/03 12:15:13;;;;;;;8.68;2.63;;;24.00;97.40;;;;;;5068032;28;20090;-82
2023/10/03 12:17:40;;;;;;;8.32;2.65;;;24.10;97.40;;;;;;5068425;28;20102;-79
2023/10/03 12:20:11;;;;;;;6.75;2.58;;;24.10;97.20;;;;;;5066764;28;20032;-81
2023/10/03 12:22:41;;;;;;;7.32;2.28;;;24.10;97.30;;;;;;5052944;28;20488;-84
2023/10/03 12:25:11;;;;;;;6.38;2.60;;;24.10;97.30;;;;;;5066151;28;20025;-80
2023/10/03 12:27:41;;;;;;;5.40;2.42;;;24.20;97.00;;;;;;5068981;28;20070;-79
2023/10/03 12:30:10;;;;;;;7.30;2.70;;;24.30;96.80;;;;;;5069047;28;20028;-82
2023/10/03 12:32:38;;;;;;;7.00;2.53;;;24.40;96.70;;;;;;5052072;28;20021;-83
2023/10/03 12:35:05;;;;;;;5.05;2.33;;;24.60;96.40;;;;;;5070078;28;20091;-80
2023/10/03 12:37:31;;;;;;;8.45;2.30;;;24.70;96.00;;;;;;5062604;28;20028;-79
2023/10/03 12:40:02;;;;;;;6.40;2.63;;;24.80;96.00;;;;;;5063289;28;20055;-80
2023/10/03 12:42:28;;;;;;;6.53;2.40;;;25.00;96.10;;;;;;5068657;28;20056;-80
2023/10/03 12:45:00;;;;;;;7.68;2.58;;;25.20;95.90;;;;;;5061644;28;20025;-79
2023/10/03 12:47:27;;;;;;;10.65;2.65;;;25.50;95.30;;;;;;5065115;28;20031;-80
2023/10/03 12:49:52;;;;;;;9.65;2.78;;;25.80;95.60;;;;;;5069110;28;20029;-79
2023/10/03 12:52:18;;;;;;;13.40;3.15;;;26.00;94.40;;;;;;5068533;28;20097;-84
2023/10/03 12:54:45;;;;;;;8.48;2.45;;;26.30;94.10;;;;;;5069605;28;20033;-81